DAOB/TID METAR and TAF weather

Enter ICAO airport designator
Station Type Date Time Source
DAOB METAR 2022/06/27 08:00 UTC NOAA

DAOB 270800Z 32006KT CAVOK 22/04 Q1019


Station Type Date Time Source
DAOB Decoded METAR 2022/06/27 08:00 UTC NOAA

Tiaret, Algeria (DAOB) 35-15N 001-26E 1127M
Jun 27, 2022 - 04:00 AM EDT / 2022.06.27 0800 UTC
Wind: from the NW (320 degrees) at 7 MPH (6 KT):0
Visibility: greater than 7 mile(s):0
Temperature: 71 F (22 C)
Dew Point: 39 F (4 C)
Relative Humidity: 30%
Pressure (altimeter): 30.09 in. Hg (1019 hPa)
ob: DAOB 270800Z 32006KT CAVOK 22/04 Q1019
cycle: 8

Station Type Date Time Source
DAOB TAF 2022/06/27 06:33 UTC NOAA

TAF DAOB 270500Z 2706/2806 22005KT CAVOK
BECMG 2709/2711 30010KT PROB30
TEMPO 2712/2718 30015G25KT

Example: see airport list